createdAt,value
2022-12-16T00:01:50.798Z,0.14
2022-12-16T00:04:18.379Z,0.18
2022-12-16T00:06:44.876Z,0.03
2022-12-16T00:09:11.361Z,0.21
2022-12-16T00:11:37.950Z,0.14
2022-12-16T00:14:04.508Z,0.13
2022-12-16T00:16:31.231Z,0.15
2022-12-16T00:18:57.716Z,0.12
2022-12-16T00:21:28.781Z,0.07
2022-12-16T00:23:58.319Z,0.04
2022-12-16T00:26:25.334Z,0.16
2022-12-16T00:28:51.803Z,0.10
2022-12-16T00:31:18.381Z,0.02
2022-12-16T00:33:45.593Z,-0.15
2022-12-16T00:36:12.150Z,-0.38
2022-12-16T00:38:38.603Z,-0.04
2022-12-16T00:41:05.414Z,-0.46
2022-12-16T00:43:32.305Z,-0.30
2022-12-16T00:45:59.014Z,-0.15
2022-12-16T00:48:25.691Z,-0.08
2022-12-16T00:50:55.284Z,0.13
2022-12-16T00:53:24.144Z,0.26
2022-12-16T00:55:50.877Z,0.17
2022-12-16T00:58:18.862Z,0.15
2022-12-16T01:00:45.446Z,0.06
2022-12-16T01:03:16.717Z,0.12
2022-12-16T01:05:46.102Z,0.10
2022-12-16T01:08:12.883Z,-0.02
2022-12-16T01:10:39.396Z,0.03
2022-12-16T01:13:05.882Z,0.05
2022-12-16T01:15:32.578Z,0.06
2022-12-16T01:17:59.382Z,0.08
2022-12-16T01:20:25.861Z,-0.05
2022-12-16T01:22:52.329Z,-0.16
2022-12-16T01:25:18.836Z,-0.05
2022-12-16T01:27:45.399Z,0.12
2022-12-16T01:30:12.446Z,0.08
2022-12-16T01:32:39.251Z,-0.29
2022-12-16T01:35:14.198Z,-0.01
2022-12-16T01:37:50.062Z,-0.17
2022-12-16T01:40:19.418Z,0.13
2022-12-16T01:42:46.155Z,-0.11
2022-12-16T01:45:24.840Z,0.19
2022-12-16T01:47:56.165Z,-0.32
2022-12-16T01:53:04.921Z,0.07
2022-12-16T01:55:36.344Z,0.17
2022-12-16T01:58:08.996Z,0.16
2022-12-16T02:00:37.438Z,0.16
2022-12-16T02:03:05.238Z,0.07
2022-12-16T02:05:35.471Z,0.01
2022-12-16T02:08:10.708Z,0.12
2022-12-16T02:10:42.976Z,0.03
2022-12-16T02:13:21.856Z,-0.01
2022-12-16T02:16:19.868Z,-0.07
2022-12-16T02:18:58.545Z,-0.24
2022-12-16T02:22:04.269Z,-0.12
2022-12-16T02:25:18.208Z,-0.17
2022-12-16T02:28:09.415Z,-0.23
2022-12-16T02:30:48.079Z,-0.39
2022-12-16T02:33:14.763Z,-0.50
2022-12-16T02:36:00.435Z,-0.61
2022-12-16T02:38:35.909Z,-0.70
2022-12-16T02:41:06.085Z,-0.72
2022-12-16T02:44:05.695Z,-0.76
2022-12-16T02:46:34.185Z,-1.03
2022-12-16T02:49:26.845Z,-0.88
2022-12-16T02:51:54.461Z,-0.96
2022-12-16T02:54:20.947Z,-1.02
2022-12-16T02:57:18.909Z,-1.50
2022-12-16T02:59:54.972Z,-1.31
2022-12-16T03:02:46.287Z,-1.38
2022-12-16T03:05:42.695Z,-1.67
2022-12-16T03:08:19.177Z,-1.33
2022-12-16T03:10:52.659Z,-1.80
2022-12-16T03:13:21.514Z,-1.47
2022-12-16T03:15:52.413Z,-1.52
2022-12-16T03:18:20.379Z,-1.68
2022-12-16T03:20:55.721Z,-1.82
2022-12-16T03:23:29.557Z,-1.94
2022-12-16T03:26:03.261Z,-1.58
2022-12-16T03:28:50.846Z,-2.08
2022-12-16T03:31:27.614Z,-1.64
2022-12-16T03:34:04.114Z,-1.98
2022-12-16T03:36:35.045Z,-2.03
2022-12-16T03:39:05.674Z,-1.82
2022-12-16T03:41:33.743Z,-1.86
2022-12-16T03:44:00.624Z,-1.67
2022-12-16T03:46:27.586Z,-1.74
2022-12-16T03:48:54.109Z,-1.86
2022-12-16T03:51:20.846Z,-1.93
2022-12-16T03:53:47.461Z,-1.95
2022-12-16T03:56:14.157Z,-2.13
2022-12-16T03:58:40.927Z,-2.36
2022-12-16T04:01:09.546Z,-2.18
2022-12-16T04:03:37.579Z,-2.16
2022-12-16T04:06:04.735Z,-2.16
2022-12-16T04:08:31.282Z,-2.35
2022-12-16T04:11:16.530Z,-2.59
2022-12-16T04:14:01.536Z,-2.16
2022-12-16T04:16:48.860Z,-2.24
2022-12-16T04:19:44.467Z,-2.26
2022-12-16T04:22:42.829Z,-2.30
2022-12-16T04:25:16.006Z,-2.35
2022-12-16T04:27:47.039Z,-2.65
2022-12-16T04:30:19.060Z,-2.30
2022-12-16T04:33:10.262Z,-2.32
2022-12-16T04:35:55.763Z,-2.38
2022-12-16T04:38:41.300Z,-2.50
2022-12-16T04:41:26.708Z,-2.81
2022-12-16T04:44:11.574Z,-2.47
2022-12-16T04:46:56.673Z,-2.51
2022-12-16T04:49:41.558Z,-2.89
2022-12-16T04:52:27.023Z,-2.58
2022-12-16T04:55:12.247Z,-2.90
2022-12-16T04:57:57.676Z,-2.61
2022-12-16T05:00:43.288Z,-2.65
2022-12-16T05:03:28.214Z,-3.10
2022-12-16T05:06:13.430Z,-3.11
2022-12-16T05:08:58.246Z,-3.08
2022-12-16T05:11:43.050Z,-2.79
2022-12-16T05:14:27.899Z,-3.07
2022-12-16T05:17:13.066Z,-2.89
2022-12-16T05:19:57.909Z,-3.18
2022-12-16T05:22:42.845Z,-2.98
2022-12-16T05:25:29.249Z,-3.30
2022-12-16T05:28:14.596Z,-3.02
2022-12-16T05:30:59.613Z,-3.09
2022-12-16T05:33:44.709Z,-3.04
2022-12-16T05:36:30.336Z,-3.09
2022-12-16T05:39:15.192Z,-3.10
2022-12-16T05:42:00.513Z,-2.97
2022-12-16T05:44:45.870Z,-2.88
2022-12-16T05:47:31.353Z,-2.88
2022-12-16T05:50:16.558Z,-3.03
2022-12-16T05:53:08.559Z,-2.98
2022-12-16T05:55:53.359Z,-3.23
2022-12-16T05:58:38.717Z,-2.96
2022-12-16T06:01:24.679Z,-2.91
2022-12-16T06:04:15.593Z,-2.89
2022-12-16T06:07:02.667Z,-3.24
2022-12-16T06:09:50.655Z,-2.92
2022-12-16T06:12:40.044Z,-2.86
2022-12-16T06:15:25.742Z,-3.06
2022-12-16T06:18:10.763Z,-3.04
2022-12-16T06:20:55.660Z,-3.23
2022-12-16T06:23:40.520Z,-3.25
2022-12-16T06:26:26.335Z,-3.06
2022-12-16T06:29:11.182Z,-2.93
2022-12-16T06:31:56.154Z,-3.06
2022-12-16T06:34:41.513Z,-3.37
2022-12-16T06:37:26.529Z,-2.87
2022-12-16T06:40:11.465Z,-3.09
2022-12-16T06:43:00.361Z,-2.67
2022-12-16T06:45:46.207Z,-2.57
2022-12-16T06:48:31.790Z,-2.47
2022-12-16T06:51:17.035Z,-2.40
2022-12-16T06:54:03.655Z,-2.26
2022-12-16T06:56:48.591Z,-2.18
2022-12-16T06:59:33.574Z,-2.10
2022-12-16T07:02:18.882Z,-2.12
2022-12-16T07:05:03.778Z,-2.00
2022-12-16T07:07:56.421Z,-2.59
2022-12-16T07:10:41.490Z,-2.04
2022-12-16T07:13:26.617Z,-1.97
2022-12-16T07:16:11.778Z,-2.10
2022-12-16T07:18:57.428Z,-2.19
2022-12-16T07:21:42.299Z,-1.92
2022-12-16T07:24:28.267Z,-2.20
2022-12-16T07:27:13.531Z,-2.22
2022-12-16T07:29:58.611Z,-2.05
2022-12-16T07:32:44.240Z,-1.94
2022-12-16T07:35:46.454Z,-2.07
2022-12-16T07:38:31.841Z,-1.91
2022-12-16T07:41:16.708Z,-2.16
2022-12-16T07:44:01.592Z,-2.18
2022-12-16T07:46:46.559Z,-2.28
2022-12-16T07:49:45.141Z,-2.06
2022-12-16T07:52:29.918Z,-2.19
2022-12-16T07:55:14.796Z,-1.79
2022-12-16T07:58:00.642Z,-1.97
2022-12-16T08:00:45.624Z,-1.89
2022-12-16T08:03:31.046Z,-2.00
2022-12-16T08:06:16.502Z,-1.68
2022-12-16T08:09:01.807Z,-1.88
2022-12-16T08:11:46.967Z,-1.85
2022-12-16T08:14:32.034Z,-2.02
2022-12-16T08:17:16.879Z,-1.97
2022-12-16T08:20:02.238Z,-1.85
2022-12-16T08:22:47.386Z,-2.08
2022-12-16T08:25:32.267Z,-1.79
2022-12-16T08:28:17.414Z,-1.92
2022-12-16T08:31:02.472Z,-1.34
2022-12-16T08:33:47.433Z,-1.53
2022-12-16T08:36:32.659Z,-1.13
2022-12-16T08:39:17.537Z,-1.05
2022-12-16T08:42:02.494Z,-1.26
2022-12-16T08:44:47.785Z,-1.10
2022-12-16T08:47:32.825Z,-1.08
2022-12-16T08:50:17.836Z,-1.00
2022-12-16T08:53:03.146Z,-0.77
2022-12-16T08:55:49.326Z,-0.56
2022-12-16T08:58:34.234Z,-0.78
2022-12-16T09:01:19.212Z,-0.56
2022-12-16T09:04:04.508Z,-0.86
2022-12-16T09:06:49.387Z,-0.62
2022-12-16T09:09:34.287Z,-0.48
2022-12-16T09:12:19.144Z,-0.61
2022-12-16T09:15:04.000Z,-0.43
2022-12-16T09:17:48.915Z,-0.53
2022-12-16T09:20:34.264Z,-0.43
2022-12-16T09:23:23.638Z,-0.60
2022-12-16T09:26:08.712Z,-0.76
2022-12-16T09:28:53.925Z,-0.33
2022-12-16T09:31:39.816Z,-0.54
2022-12-16T09:34:24.755Z,-0.52
2022-12-16T09:37:10.083Z,-0.22
2022-12-16T09:39:55.039Z,-0.39
2022-12-16T09:43:07.217Z,-0.40
2022-12-16T09:46:07.403Z,-0.06
2022-12-16T09:49:24.515Z,0.08
2022-12-16T09:52:16.506Z,0.04
2022-12-16T09:55:05.240Z,0.08
2022-12-16T09:57:54.116Z,0.20
2022-12-16T10:00:43.377Z,0.11
2022-12-16T10:03:52.929Z,0.11
2022-12-16T10:06:51.434Z,0.29
2022-12-16T10:10:02.844Z,0.27
2022-12-16T10:13:29.673Z,0.31
2022-12-16T10:16:26.119Z,0.33
2022-12-16T10:19:21.257Z,0.37
2022-12-16T10:22:11.175Z,0.43
2022-12-16T10:25:14.188Z,0.39
2022-12-16T10:28:04.707Z,0.41
2022-12-16T10:30:52.675Z,0.21
2022-12-16T10:33:40.307Z,0.33
2022-12-16T10:36:32.922Z,0.21
2022-12-16T10:39:25.688Z,-0.26
2022-12-16T10:42:12.737Z,0.39
2022-12-16T10:45:14.296Z,0.43
2022-12-16T10:47:59.477Z,0.41
2022-12-16T10:50:44.514Z,0.10
2022-12-16T10:53:41.579Z,-0.60
2022-12-16T10:56:45.650Z,0.47
2022-12-16T10:59:30.717Z,0.61
2022-12-16T11:02:20.495Z,0.57
2022-12-16T11:05:08.067Z,0.53
2022-12-16T11:07:56.331Z,0.67
2022-12-16T11:11:04.288Z,0.68
2022-12-16T11:13:55.976Z,0.66
2022-12-16T11:16:46.691Z,0.36
2022-12-16T11:19:44.667Z,0.72
2022-12-16T11:22:39.108Z,0.68
2022-12-16T11:25:37.928Z,0.65
2022-12-16T11:28:35.323Z,0.74
2022-12-16T11:31:34.646Z,0.80
2022-12-16T11:34:21.554Z,0.83
2022-12-16T11:37:11.082Z,0.82
2022-12-16T11:39:56.961Z,0.94
2022-12-16T11:42:47.181Z,0.96
2022-12-16T11:45:35.468Z,0.70
2022-12-16T11:49:01.377Z,0.79
2022-12-16T11:51:50.570Z,0.74
2022-12-16T11:54:42.315Z,0.62
2022-12-16T11:57:41.933Z,0.91
2022-12-16T12:00:33.760Z,0.62
2022-12-16T12:03:32.453Z,0.91
2022-12-16T12:06:30.958Z,0.91
2022-12-16T12:09:27.110Z,1.00
2022-12-16T12:12:31.011Z,1.08
2022-12-16T12:15:33.442Z,0.74
2022-12-16T12:18:24.759Z,1.08
2022-12-16T12:21:29.890Z,1.05
2022-12-16T12:24:31.422Z,1.01
2022-12-16T12:27:38.906Z,0.56
2022-12-16T12:30:41.828Z,1.02
2022-12-16T12:33:48.907Z,1.00
2022-12-16T12:36:45.992Z,1.15
2022-12-16T12:39:38.542Z,0.72
2022-12-16T12:42:49.187Z,1.15
2022-12-16T12:46:06.195Z,1.05
2022-12-16T12:49:00.488Z,1.03
2022-12-16T12:52:18.237Z,1.11
2022-12-16T12:55:23.549Z,1.15
2022-12-16T12:58:10.910Z,1.18
2022-12-16T13:01:04.085Z,0.78
2022-12-16T13:04:00.788Z,1.05
2022-12-16T13:06:46.714Z,1.18
2022-12-16T13:10:27.416Z,1.48
2022-12-16T13:13:36.196Z,1.39
2022-12-16T13:16:23.992Z,1.13
2022-12-16T13:19:47.580Z,1.18
2022-12-16T13:22:53.888Z,1.29
2022-12-16T13:26:03.535Z,0.84
2022-12-16T13:28:52.089Z,1.16
2022-12-16T13:31:38.230Z,1.17
2022-12-16T13:34:42.443Z,1.07
2022-12-16T13:37:44.548Z,1.13
2022-12-16T13:40:40.197Z,0.96
2022-12-16T13:43:55.959Z,0.82
2022-12-16T13:47:18.525Z,0.61
2022-12-16T13:50:03.601Z,0.48
2022-12-16T13:53:03.959Z,0.39
2022-12-16T13:55:54.087Z,0.38
2022-12-16T13:58:50.445Z,0.32
2022-12-16T14:01:41.396Z,0.11
2022-12-16T14:04:29.307Z,0.12
2022-12-16T14:07:24.441Z,0.06
2022-12-16T14:10:09.930Z,0.14
2022-12-16T14:13:16.794Z,0.07
2022-12-16T14:16:33.226Z,0.10
2022-12-16T14:19:40.201Z,0.38
2022-12-16T14:22:40.715Z,0.54
2022-12-16T14:25:33.999Z,0.89
2022-12-16T14:28:24.357Z,0.74
2022-12-16T14:31:22.841Z,0.57
2022-12-16T14:34:13.275Z,0.67
2022-12-16T14:36:59.079Z,0.39
2022-12-16T14:39:48.938Z,0.35
2022-12-16T14:42:52.862Z,0.21
2022-12-16T14:45:38.014Z,-0.02
2022-12-16T14:48:50.089Z,-0.08
2022-12-16T14:51:41.026Z,-0.36
2022-12-16T14:54:54.180Z,-0.38
2022-12-16T14:57:48.478Z,-0.58
2022-12-16T15:00:43.019Z,-0.82
2022-12-16T15:03:50.458Z,-0.83
2022-12-16T15:06:45.417Z,-0.88
2022-12-16T15:09:40.294Z,-1.28
2022-12-16T15:12:28.814Z,-0.98
2022-12-16T15:15:15.349Z,-1.01
2022-12-16T15:18:07.514Z,-1.06
2022-12-16T15:20:56.680Z,-1.50
2022-12-16T15:23:48.547Z,-1.15
2022-12-16T15:26:43.238Z,-1.23
2022-12-16T15:29:47.614Z,-1.40
2022-12-16T15:32:54.167Z,-1.13
2022-12-16T15:36:04.847Z,-1.15
2022-12-16T15:38:52.180Z,-1.45
2022-12-16T15:41:49.903Z,-1.05
2022-12-16T15:44:40.791Z,-1.03
2022-12-16T15:47:39.403Z,-0.88
2022-12-16T15:50:25.446Z,-0.85
2022-12-16T15:53:11.715Z,-1.08
2022-12-16T15:56:04.566Z,-0.82
2022-12-16T15:58:50.261Z,-0.74
2022-12-16T16:01:37.707Z,-0.70
2022-12-16T16:04:23.018Z,-0.77
2022-12-16T16:07:10.607Z,-0.93
2022-12-16T16:09:58.721Z,-0.85
2022-12-16T16:12:44.004Z,-0.74
2022-12-16T16:15:32.624Z,-0.75
2022-12-16T16:18:21.445Z,-1.09
2022-12-16T16:21:08.760Z,-1.31
2022-12-16T16:23:54.164Z,-1.15
2022-12-16T16:26:41.812Z,-1.48
2022-12-16T16:29:29.321Z,-1.02
2022-12-16T16:32:14.449Z,-1.47
2022-12-16T16:34:59.684Z,-1.63
2022-12-16T16:37:44.824Z,-1.07
2022-12-16T16:40:36.149Z,-1.00
2022-12-16T16:43:21.467Z,-1.02
2022-12-16T16:46:13.113Z,-1.37
2022-12-16T16:48:58.836Z,-1.14
2022-12-16T16:51:44.077Z,-1.36
2022-12-16T16:54:29.050Z,-1.48
2022-12-16T16:57:14.183Z,-1.01
2022-12-16T16:59:59.707Z,-1.25
2022-12-16T17:02:44.745Z,-1.27
2022-12-16T17:05:30.715Z,-1.24
2022-12-16T17:08:16.667Z,-1.51
2022-12-16T17:11:02.402Z,-1.36
2022-12-16T17:14:01.041Z,-1.31
2022-12-16T17:16:45.835Z,-1.30
2022-12-16T17:19:30.848Z,-1.36
2022-12-16T17:22:17.100Z,-2.12
2022-12-16T17:25:02.099Z,-1.19
2022-12-16T17:27:47.757Z,-1.21
2022-12-16T17:30:36.147Z,-1.36
2022-12-16T17:33:21.643Z,-1.15
2022-12-16T17:36:08.271Z,-0.93
2022-12-16T17:38:58.198Z,-1.26
2022-12-16T17:41:43.553Z,-1.02
2022-12-16T17:44:28.427Z,-1.32
2022-12-16T17:47:13.349Z,-0.78
2022-12-16T17:49:58.541Z,-0.78
2022-12-16T17:52:44.159Z,-1.19
2022-12-16T17:55:29.636Z,-0.76
2022-12-16T17:58:15.160Z,-0.70
2022-12-16T18:01:00.979Z,-0.84
2022-12-16T18:03:46.645Z,-0.95
2022-12-16T18:06:31.879Z,-1.19
2022-12-16T18:09:17.344Z,-0.64
2022-12-16T18:12:02.842Z,-0.76
2022-12-16T18:14:47.789Z,-0.69
2022-12-16T18:17:32.738Z,-0.73
2022-12-16T18:20:17.899Z,-0.96
2022-12-16T18:23:03.147Z,-0.55
2022-12-16T18:25:48.256Z,-0.63
2022-12-16T18:28:33.274Z,-0.93
2022-12-16T18:31:23.566Z,-0.95
2022-12-16T18:34:09.298Z,-0.45
2022-12-16T18:36:54.487Z,-0.39
2022-12-16T18:39:39.731Z,-0.54
2022-12-16T18:42:24.624Z,-0.42
2022-12-16T18:45:10.188Z,-0.66
2022-12-16T18:47:55.843Z,-0.33
2022-12-16T18:50:40.822Z,-0.62
2022-12-16T18:53:25.741Z,-0.84
2022-12-16T18:56:25.371Z,-0.52
2022-12-16T18:59:11.364Z,-0.65
2022-12-16T19:01:56.804Z,-0.20
2022-12-16T19:04:42.149Z,-0.12
2022-12-16T19:07:27.504Z,-0.27
2022-12-16T19:10:13.023Z,-0.66
2022-12-16T19:12:58.135Z,-0.11
2022-12-16T19:15:43.373Z,-0.40
2022-12-16T19:18:30.388Z,-0.11
2022-12-16T19:21:16.030Z,-0.15
2022-12-16T19:24:02.080Z,-0.21
2022-12-16T19:26:46.901Z,-0.56
2022-12-16T19:29:31.828Z,-0.27
2022-12-16T19:32:17.081Z,-0.18
2022-12-16T19:35:02.173Z,-0.19
2022-12-16T19:37:47.152Z,-0.19
2022-12-16T19:40:32.326Z,-0.02
2022-12-16T19:43:17.334Z,-0.05
2022-12-16T19:46:02.316Z,-0.06
2022-12-16T19:48:50.399Z,0.03
2022-12-16T19:51:35.414Z,-0.01
2022-12-16T19:54:20.324Z,-0.55
2022-12-16T19:57:05.308Z,-0.41
2022-12-16T19:59:50.211Z,-0.45
2022-12-16T20:02:35.282Z,-0.44
2022-12-16T20:05:20.565Z,0.01
2022-12-16T20:08:05.630Z,-0.03
2022-12-16T20:10:50.967Z,-0.04
2022-12-16T20:13:36.772Z,-0.32
2022-12-16T20:16:26.417Z,-0.05
2022-12-16T20:19:11.845Z,-0.04
2022-12-16T20:22:00.690Z,-0.30
2022-12-16T20:24:49.622Z,-0.04
2022-12-16T20:27:34.661Z,-0.34
2022-12-16T20:30:19.573Z,-0.04
2022-12-16T20:33:06.302Z,-0.02
2022-12-16T20:35:51.200Z,-0.29
2022-12-16T20:38:36.701Z,-0.16
2022-12-16T20:41:22.945Z,-0.10
2022-12-16T20:44:09.277Z,-0.11
2022-12-16T20:46:56.328Z,-0.24
2022-12-16T20:49:41.703Z,-0.20
2022-12-16T20:52:26.537Z,-0.02
2022-12-16T20:55:11.335Z,-0.19
2022-12-16T20:57:56.376Z,0.02
2022-12-16T21:00:41.651Z,-0.07
2022-12-16T21:03:28.004Z,0.16
2022-12-16T21:06:13.453Z,0.10
2022-12-16T21:08:58.766Z,0.01
2022-12-16T21:11:43.888Z,0.05
2022-12-16T21:14:28.819Z,-0.44
2022-12-16T21:17:13.634Z,-0.30
2022-12-16T21:19:58.551Z,-0.03
2022-12-16T21:22:43.498Z,-0.09
2022-12-16T21:25:28.365Z,-0.15
2022-12-16T21:28:17.684Z,0.10
2022-12-16T21:31:03.266Z,0.20
2022-12-16T21:33:49.388Z,-0.06
2022-12-16T21:36:39.659Z,-0.06
2022-12-16T21:39:38.217Z,0.08
2022-12-16T21:42:23.137Z,0.18
2022-12-16T21:45:08.051Z,0.20
2022-12-16T21:47:52.851Z,-0.01
2022-12-16T21:50:41.040Z,0.10
2022-12-16T21:53:26.273Z,-0.14
2022-12-16T21:56:11.949Z,-0.15
2022-12-16T21:58:56.946Z,-0.03
2022-12-16T22:01:42.031Z,-0.41
2022-12-16T22:04:27.999Z,-0.58
2022-12-16T22:07:12.911Z,-0.33
2022-12-16T22:09:58.246Z,-0.45
2022-12-16T22:12:43.160Z,-0.35
2022-12-16T22:15:28.698Z,-0.44
2022-12-16T22:18:14.623Z,-0.53
2022-12-16T22:20:59.681Z,-0.53
2022-12-16T22:23:48.217Z,-0.70
2022-12-16T22:26:33.537Z,-0.84
2022-12-16T22:29:18.956Z,-0.92
2022-12-16T22:32:08.377Z,-1.02
2022-12-16T22:34:53.485Z,-1.03
2022-12-16T22:37:40.949Z,-1.39
2022-12-16T22:40:27.241Z,-1.06
2022-12-16T22:43:12.111Z,-1.89
2022-12-16T22:45:57.069Z,-1.08
2022-12-16T22:48:42.294Z,-1.46
2022-12-16T22:51:31.257Z,-1.46
2022-12-16T22:54:16.595Z,-1.20
2022-12-16T22:57:09.682Z,-1.35
2022-12-16T22:59:54.793Z,-1.35
2022-12-16T23:02:41.935Z,-1.45
2022-12-16T23:05:28.261Z,-1.41
2022-12-16T23:08:13.926Z,-1.41
2022-12-16T23:10:59.594Z,-1.37
2022-12-16T23:13:46.018Z,-1.38
2022-12-16T23:16:31.526Z,-1.54
2022-12-16T23:19:16.672Z,-1.73
2022-12-16T23:22:01.512Z,-1.42
2022-12-16T23:24:46.513Z,-1.74
2022-12-16T23:27:31.633Z,-1.64
2022-12-16T23:30:16.737Z,-1.77
2022-12-16T23:33:01.664Z,-1.73
2022-12-16T23:35:46.758Z,-2.04
2022-12-16T23:38:31.596Z,-1.74
2022-12-16T23:41:17.601Z,-2.21
2022-12-16T23:44:03.580Z,-1.94
2022-12-16T23:46:49.021Z,-1.63
2022-12-16T23:49:34.283Z,-1.56
2022-12-16T23:52:19.143Z,-1.76
2022-12-16T23:55:04.261Z,-1.48
2022-12-16T23:57:49.381Z,-1.28
